createdAt,value
2019-02-06T00:01:41.967Z,92.74
2019-02-06T00:04:15.375Z,93.21
2019-02-06T00:06:45.559Z,92.73
2019-02-06T00:09:17.599Z,93.10
2019-02-06T00:11:48.478Z,92.72
2019-02-06T00:14:19.346Z,92.61
2019-02-06T00:16:50.444Z,92.60
2019-02-06T00:19:21.666Z,94.02
2019-02-06T00:21:52.538Z,94.27
2019-02-06T00:24:23.537Z,93.66
2019-02-06T00:26:54.410Z,93.43
2019-02-06T00:29:25.433Z,93.61
2019-02-06T00:31:56.538Z,93.34
2019-02-06T00:34:27.561Z,93.78
2019-02-06T00:36:58.379Z,93.55
2019-02-06T00:39:29.636Z,93.02
2019-02-06T00:42:00.429Z,92.80
2019-02-06T00:44:32.069Z,92.79
2019-02-06T00:47:03.147Z,92.77
2019-02-06T00:49:34.149Z,92.67
2019-02-06T00:52:05.655Z,93.33
2019-02-06T00:54:36.662Z,92.94
2019-02-06T00:57:07.534Z,92.40
2019-02-06T00:59:38.386Z,92.41
2019-02-06T01:02:09.738Z,92.96
2019-02-06T01:04:40.660Z,92.87
2019-02-06T01:07:11.792Z,92.95
2019-02-06T01:09:42.874Z,92.54
2019-02-06T01:12:15.224Z,92.68
2019-02-06T01:14:46.303Z,92.44
2019-02-06T01:17:17.329Z,92.50
2019-02-06T01:19:48.177Z,93.75
2019-02-06T01:22:19.042Z,93.18
2019-02-06T01:24:50.158Z,93.07
2019-02-06T01:27:21.894Z,93.10
2019-02-06T01:29:53.153Z,92.21
2019-02-06T01:32:25.241Z,91.75
2019-02-06T01:34:56.342Z,91.77
2019-02-06T01:37:27.130Z,91.26
2019-02-06T01:39:58.072Z,91.97
2019-02-06T01:42:29.124Z,91.74
2019-02-06T01:45:00.319Z,91.54
2019-02-06T01:47:31.400Z,91.23
2019-02-06T01:50:02.474Z,92.07
2019-02-06T01:52:34.649Z,91.80
2019-02-06T01:55:05.996Z,92.80
2019-02-06T01:57:37.000Z,91.59
2019-02-06T02:00:14.530Z,92.53
2019-02-06T02:02:45.877Z,91.92
2019-02-06T02:05:19.073Z,90.85
2019-02-06T02:07:51.376Z,91.65
2019-02-06T02:10:22.480Z,91.00
2019-02-06T02:12:53.353Z,91.25
2019-02-06T02:15:24.197Z,90.86
2019-02-06T02:17:55.606Z,91.15
2019-02-06T02:20:26.698Z,90.39
2019-02-06T02:22:57.929Z,89.72
2019-02-06T02:25:28.863Z,90.10
2019-02-06T02:28:00.604Z,89.96
2019-02-06T02:30:38.473Z,90.21
2019-02-06T02:33:09.415Z,89.87
2019-02-06T02:35:40.597Z,90.65
2019-02-06T02:38:12.043Z,91.15
2019-02-06T02:40:42.924Z,91.12
2019-02-06T02:43:13.988Z,91.10
2019-02-06T02:45:45.978Z,91.84
2019-02-06T02:48:17.113Z,91.60
2019-02-06T02:50:48.001Z,91.46
2019-02-06T02:53:19.211Z,91.88
2019-02-06T02:55:50.310Z,91.54
2019-02-06T02:58:21.428Z,91.63
2019-02-06T03:01:05.525Z,91.89
2019-02-06T03:03:40.179Z,91.90
2019-02-06T03:06:11.634Z,92.37
2019-02-06T03:08:42.867Z,92.78
2019-02-06T03:11:15.086Z,93.24
2019-02-06T03:13:46.213Z,93.38
2019-02-06T03:16:17.426Z,93.17
2019-02-06T03:18:48.717Z,93.95
2019-02-06T03:21:19.820Z,93.92
2019-02-06T03:23:50.875Z,93.75
2019-02-06T03:26:21.949Z,93.84
2019-02-06T03:28:53.183Z,93.19
2019-02-06T03:31:24.477Z,93.36
2019-02-06T03:33:55.240Z,93.90
2019-02-06T03:36:26.411Z,93.99
2019-02-06T03:38:57.471Z,94.04
2019-02-06T03:41:28.396Z,94.31
2019-02-06T03:43:59.805Z,94.59
2019-02-06T03:46:31.235Z,94.55
2019-02-06T03:49:02.287Z,94.58
2019-02-06T03:51:33.638Z,94.43
2019-02-06T03:54:05.071Z,94.37
2019-02-06T03:56:36.186Z,94.03
2019-02-06T03:59:08.499Z,94.41
2019-02-06T04:01:39.366Z,94.38
2019-02-06T04:04:10.436Z,94.43
2019-02-06T04:06:52.723Z,94.11
2019-02-06T04:09:13.758Z,93.86
2019-02-06T04:11:44.963Z,93.81
2019-02-06T04:14:15.741Z,93.70
2019-02-06T04:16:47.050Z,93.82
2019-02-06T04:19:17.906Z,94.21
2019-02-06T04:21:48.916Z,93.92
2019-02-06T04:24:19.985Z,93.91
2019-02-06T04:26:51.098Z,94.11
2019-02-06T04:29:22.436Z,94.46
2019-02-06T04:31:53.523Z,93.85
2019-02-06T04:34:24.454Z,93.54
2019-02-06T04:37:06.214Z,93.28
2019-02-06T04:39:27.691Z,93.73
2019-02-06T04:41:58.615Z,93.77
2019-02-06T04:44:29.747Z,93.56
2019-02-06T04:47:00.520Z,93.51
2019-02-06T04:49:31.618Z,93.43
2019-02-06T04:52:03.269Z,93.61
2019-02-06T04:54:34.053Z,93.33
2019-02-06T04:57:05.117Z,93.06
2019-02-06T04:59:35.884Z,92.64
2019-02-06T05:02:07.013Z,92.98
2019-02-06T05:04:37.881Z,92.40
2019-02-06T05:07:18.668Z,92.50
2019-02-06T05:09:41.640Z,92.49
2019-02-06T05:12:12.567Z,92.61
2019-02-06T05:14:43.487Z,92.69
2019-02-06T05:17:14.468Z,93.23
2019-02-06T05:19:45.795Z,93.15
2019-02-06T05:22:16.637Z,92.53
2019-02-06T05:24:47.640Z,92.67
2019-02-06T05:27:18.628Z,92.69
2019-02-06T05:29:49.404Z,92.78
2019-02-06T05:32:20.874Z,92.88
2019-02-06T05:34:51.668Z,92.95
2019-02-06T05:37:31.216Z,92.65
2019-02-06T05:39:55.147Z,92.66
2019-02-06T05:42:26.297Z,92.77
2019-02-06T05:44:57.201Z,93.72
2019-02-06T05:47:28.213Z,94.18
2019-02-06T05:49:59.223Z,93.95
2019-02-06T05:52:29.986Z,93.74
2019-02-06T05:55:04.290Z,93.51
2019-02-06T05:57:33.227Z,93.43
2019-02-06T06:00:07.384Z,94.12
2019-02-06T06:02:38.492Z,93.81
2019-02-06T06:05:09.775Z,93.54
2019-02-06T06:07:45.241Z,93.68
2019-02-06T06:10:14.440Z,93.14
2019-02-06T06:12:45.780Z,93.27
2019-02-06T06:15:17.906Z,93.84
2019-02-06T06:17:48.933Z,93.64
2019-02-06T06:20:19.858Z,93.59
2019-02-06T06:22:50.637Z,93.32
2019-02-06T06:25:21.924Z,93.11
2019-02-06T06:27:53.016Z,92.84
2019-02-06T06:30:23.860Z,92.77
2019-02-06T06:32:54.662Z,92.34
2019-02-06T06:35:25.499Z,92.44
2019-02-06T06:38:00.534Z,92.70
2019-02-06T06:40:29.603Z,92.73
2019-02-06T06:43:00.742Z,92.96
2019-02-06T06:45:31.882Z,93.01
2019-02-06T06:48:02.986Z,93.16
2019-02-06T06:50:33.807Z,93.09
2019-02-06T06:53:04.656Z,93.01
2019-02-06T06:55:36.144Z,93.16
2019-02-06T06:58:07.130Z,93.37
2019-02-06T07:00:38.311Z,93.47
2019-02-06T07:03:09.165Z,93.74
2019-02-06T07:05:39.933Z,93.83
2019-02-06T07:08:13.362Z,94.61
2019-02-06T07:10:43.286Z,94.58
2019-02-06T07:13:14.432Z,93.85
2019-02-06T07:15:46.310Z,93.32
2019-02-06T07:18:17.542Z,93.04
2019-02-06T07:20:48.626Z,92.72
2019-02-06T07:23:20.152Z,92.96
2019-02-06T07:25:51.153Z,93.00
2019-02-06T07:28:22.124Z,92.33
2019-02-06T07:30:52.896Z,92.49
2019-02-06T07:33:24.334Z,92.40
2019-02-06T07:35:55.396Z,93.10
2019-02-06T07:38:26.253Z,93.23
2019-02-06T07:40:57.023Z,92.79
2019-02-06T07:43:28.165Z,92.16
2019-02-06T07:45:59.312Z,92.08
2019-02-06T07:48:30.119Z,91.71
2019-02-06T07:51:00.955Z,91.58
2019-02-06T07:53:31.997Z,91.22
2019-02-06T07:56:02.913Z,91.01
2019-02-06T07:58:34.008Z,90.76
2019-02-06T08:01:05.600Z,90.75
2019-02-06T08:03:36.470Z,90.75
2019-02-06T08:06:07.953Z,90.82
2019-02-06T08:08:38.996Z,90.78
2019-02-06T08:11:09.824Z,90.50
2019-02-06T08:13:41.209Z,89.71
2019-02-06T08:16:12.279Z,89.29
2019-02-06T08:18:43.132Z,89.21
2019-02-06T08:21:14.122Z,88.93
2019-02-06T08:23:44.976Z,88.64
2019-02-06T08:26:19.194Z,88.17
2019-02-06T08:28:50.305Z,88.19
2019-02-06T08:31:21.320Z,86.75
2019-02-06T08:33:52.118Z,85.76
2019-02-06T08:36:23.101Z,84.90
2019-02-06T08:38:55.648Z,84.72
2019-02-06T08:41:27.450Z,79.60
2019-02-06T08:44:01.625Z,79.14
2019-02-06T08:46:31.382Z,77.87
2019-02-06T08:49:02.452Z,80.40
2019-02-06T08:51:33.324Z,77.37
2019-02-06T08:54:04.184Z,78.31
2019-02-06T08:56:35.100Z,76.61
2019-02-06T08:59:06.186Z,76.26
2019-02-06T09:01:37.347Z,76.55
2019-02-06T09:04:08.422Z,77.08
2019-02-06T09:06:39.526Z,76.67
2019-02-06T09:09:11.587Z,75.64
2019-02-06T09:11:42.831Z,75.75
2019-02-06T09:14:13.767Z,75.39
2019-02-06T09:16:44.609Z,76.15
2019-02-06T09:19:15.780Z,75.64
2019-02-06T09:21:46.542Z,76.01
2019-02-06T09:24:17.713Z,77.57
2019-02-06T09:26:48.788Z,76.75
2019-02-06T09:29:19.783Z,76.95
2019-02-06T09:31:50.561Z,77.53
2019-02-06T09:34:21.363Z,78.13
2019-02-06T09:36:52.184Z,77.24
2019-02-06T09:39:23.152Z,77.85
2019-02-06T09:41:54.444Z,77.80
2019-02-06T09:44:25.504Z,77.19
2019-02-06T09:46:57.105Z,76.81
2019-02-06T09:49:28.129Z,77.09
2019-02-06T09:51:59.117Z,77.03
2019-02-06T09:54:30.167Z,77.01
2019-02-06T09:57:01.198Z,76.98
2019-02-06T09:59:31.974Z,77.69
2019-02-06T10:02:02.745Z,76.72
2019-02-06T10:04:33.604Z,76.51
2019-02-06T10:07:04.730Z,76.37
2019-02-06T10:09:35.821Z,76.90
2019-02-06T10:12:06.891Z,76.63
2019-02-06T10:14:38.185Z,76.33
2019-02-06T10:17:09.443Z,76.23
2019-02-06T10:19:42.441Z,75.71
2019-02-06T10:22:13.555Z,76.15
2019-02-06T10:24:44.339Z,75.51
2019-02-06T10:27:15.224Z,74.84
2019-02-06T10:29:46.295Z,75.69
2019-02-06T10:32:17.297Z,75.94
2019-02-06T10:34:48.308Z,76.84
2019-02-06T10:37:19.079Z,75.89
2019-02-06T10:39:49.960Z,76.88
2019-02-06T10:42:20.801Z,76.27
2019-02-06T10:44:51.897Z,76.83
2019-02-06T10:47:22.667Z,75.12
2019-02-06T10:49:53.695Z,75.48
2019-02-06T10:52:24.832Z,75.56
2019-02-06T10:54:55.866Z,75.12
2019-02-06T10:57:26.902Z,75.19
2019-02-06T10:59:58.048Z,74.83
2019-02-06T11:02:28.832Z,74.64
2019-02-06T11:04:59.864Z,73.66
2019-02-06T11:07:31.203Z,73.62
2019-02-06T11:10:02.000Z,73.79
2019-02-06T11:12:33.564Z,72.93
2019-02-06T11:15:05.536Z,72.04
2019-02-06T11:17:36.616Z,71.92
2019-02-06T11:20:11.007Z,71.50
2019-02-06T11:22:42.173Z,71.44
2019-02-06T11:25:13.267Z,71.25
2019-02-06T11:27:44.635Z,70.23
2019-02-06T11:30:18.627Z,70.34
2019-02-06T11:32:49.743Z,70.27
2019-02-06T11:35:20.767Z,68.57
2019-02-06T11:37:51.612Z,67.66
2019-02-06T11:40:23.841Z,68.49
2019-02-06T11:42:54.915Z,68.23
2019-02-06T11:45:30.539Z,68.14
2019-02-06T11:48:01.380Z,68.24
2019-02-06T11:50:38.235Z,68.11
2019-02-06T11:53:14.472Z,67.08
2019-02-06T11:55:45.613Z,67.50
2019-02-06T11:58:17.822Z,67.41
2019-02-06T12:01:20.110Z,66.17
2019-02-06T12:03:51.250Z,67.18
2019-02-06T12:06:22.100Z,67.04
2019-02-06T12:08:53.120Z,67.88
2019-02-06T12:11:23.977Z,66.72
2019-02-06T12:13:55.035Z,66.83
2019-02-06T12:16:25.924Z,64.63
2019-02-06T12:18:57.388Z,65.51
2019-02-06T12:21:28.532Z,66.02
2019-02-06T12:23:59.576Z,67.25
2019-02-06T12:26:30.461Z,66.71
2019-02-06T12:29:01.491Z,66.82
2019-02-06T12:31:32.341Z,65.70
2019-02-06T12:34:03.176Z,64.63
2019-02-06T12:36:36.870Z,64.32
2019-02-06T12:39:10.132Z,64.44
2019-02-06T12:41:41.092Z,64.15
2019-02-06T12:44:11.848Z,64.56
2019-02-06T12:46:43.150Z,64.23
2019-02-06T12:49:14.602Z,64.43
2019-02-06T12:51:45.536Z,63.07
2019-02-06T12:54:16.705Z,63.51
2019-02-06T12:56:47.574Z,61.71
2019-02-06T12:59:19.522Z,63.10
2019-02-06T13:01:50.415Z,62.32
2019-02-06T13:04:21.473Z,63.55
2019-02-06T13:06:52.459Z,62.63
2019-02-06T13:09:23.522Z,64.11
2019-02-06T13:11:54.305Z,62.98
2019-02-06T13:14:25.548Z,63.17
2019-02-06T13:16:56.271Z,62.78
2019-02-06T13:19:27.250Z,62.46
2019-02-06T13:21:58.332Z,61.96
2019-02-06T13:24:29.164Z,61.88
2019-02-06T13:27:00.123Z,62.81
2019-02-06T13:29:31.112Z,61.12
2019-02-06T13:32:02.002Z,60.64
2019-02-06T13:34:33.120Z,61.25
2019-02-06T13:37:04.209Z,61.17
2019-02-06T13:39:35.518Z,61.71
2019-02-06T13:42:06.871Z,60.49
2019-02-06T13:44:37.948Z,61.05
2019-02-06T13:47:09.086Z,62.22
2019-02-06T13:49:39.887Z,61.14
2019-02-06T13:52:11.215Z,61.65
2019-02-06T13:54:42.479Z,62.13
2019-02-06T13:57:13.265Z,63.12
2019-02-06T13:59:44.018Z,63.21
2019-02-06T14:02:14.950Z,63.43
2019-02-06T14:04:45.786Z,63.67
2019-02-06T14:07:16.655Z,63.50
2019-02-06T14:09:48.156Z,63.70
2019-02-06T14:12:19.199Z,63.58
2019-02-06T14:14:50.305Z,64.31
2019-02-06T14:17:21.628Z,63.97
2019-02-06T14:19:52.469Z,64.00
2019-02-06T14:22:23.836Z,64.17
2019-02-06T14:25:00.308Z,64.71
2019-02-06T14:27:49.126Z,64.12
2019-02-06T14:30:29.711Z,64.46
2019-02-06T14:33:44.920Z,65.19
2019-02-06T14:37:06.490Z,65.04
2019-02-06T14:39:48.547Z,64.95
2019-02-06T14:42:36.138Z,64.98
2019-02-06T14:45:43.919Z,64.70
2019-02-06T14:48:57.383Z,63.63
2019-02-06T14:52:17.575Z,64.46
2019-02-06T14:55:22.754Z,64.84
2019-02-06T14:58:33.485Z,65.33
2019-02-06T15:01:25.774Z,65.67
2019-02-06T15:04:43.896Z,63.90
2019-02-06T15:07:33.979Z,65.32
2019-02-06T15:10:54.230Z,65.89
2019-02-06T15:14:00.847Z,66.46
2019-02-06T15:17:23.989Z,66.83
2019-02-06T15:20:19.496Z,67.34
2019-02-06T15:23:40.131Z,66.60
2019-02-06T15:26:29.263Z,68.10
2019-02-06T15:29:38.151Z,68.15
2019-02-06T15:32:46.807Z,68.20
2019-02-06T15:35:53.635Z,69.56
2019-02-06T15:39:05.805Z,70.34
2019-02-06T15:41:55.576Z,72.04
2019-02-06T15:44:49.364Z,72.00
2019-02-06T15:47:58.289Z,72.88
2019-02-06T15:50:57.158Z,73.33
2019-02-06T15:54:11.129Z,73.74
2019-02-06T15:57:22.554Z,74.40
2019-02-06T16:00:46.799Z,75.51
2019-02-06T16:03:58.417Z,76.58
2019-02-06T16:07:16.324Z,76.62
2019-02-06T16:10:28.064Z,77.56
2019-02-06T16:13:24.498Z,78.21
2019-02-06T16:16:30.844Z,78.22
2019-02-06T16:19:22.208Z,78.35
2019-02-06T16:22:24.207Z,77.41
2019-02-06T16:25:20.984Z,78.26
2019-02-06T16:28:01.017Z,80.36
2019-02-06T16:31:22.548Z,80.25
2019-02-06T16:34:43.676Z,81.03
2019-02-06T16:37:52.924Z,80.96
2019-02-06T16:41:01.723Z,81.22
2019-02-06T16:43:48.640Z,82.40
2019-02-06T16:46:34.747Z,83.04
2019-02-06T16:49:44.142Z,82.96
2019-02-06T16:53:00.394Z,83.10
2019-02-06T16:56:06.863Z,83.20
2019-02-06T16:59:11.484Z,83.62
2019-02-06T17:02:06.639Z,84.33
2019-02-06T17:05:01.496Z,85.23
2019-02-06T17:08:14.516Z,86.15
2019-02-06T17:11:06.702Z,86.26
2019-02-06T17:14:14.368Z,85.75
2019-02-06T17:17:19.962Z,86.08
2019-02-06T17:20:19.111Z,86.87
2019-02-06T17:23:11.963Z,86.28
2019-02-06T17:26:22.392Z,86.13
2019-02-06T17:29:12.175Z,86.51
2019-02-06T17:31:59.647Z,87.28
2019-02-06T17:34:46.390Z,87.00
2019-02-06T17:37:55.989Z,88.42
2019-02-06T17:40:49.771Z,87.51
2019-02-06T17:43:59.059Z,87.90
2019-02-06T17:47:01.680Z,88.29
2019-02-06T17:50:06.235Z,89.14
2019-02-06T17:53:19.915Z,89.04
2019-02-06T17:55:51.929Z,89.19
2019-02-06T17:58:22.979Z,89.88
2019-02-06T18:00:57.640Z,90.41
2019-02-06T18:03:31.487Z,90.59
2019-02-06T18:06:02.803Z,91.76
2019-02-06T18:08:33.879Z,90.98
2019-02-06T18:11:05.038Z,90.44
2019-02-06T18:13:36.531Z,90.33
2019-02-06T18:16:07.752Z,90.51
2019-02-06T18:18:38.588Z,91.21
2019-02-06T18:21:09.577Z,91.55
2019-02-06T18:23:40.903Z,91.15
2019-02-06T18:26:12.333Z,90.26
2019-02-06T18:28:43.216Z,90.52
2019-02-06T18:31:14.586Z,90.83
2019-02-06T18:33:45.559Z,90.38
2019-02-06T18:36:16.635Z,90.46
2019-02-06T18:38:49.719Z,90.35
2019-02-06T18:41:20.914Z,89.64
2019-02-06T18:43:52.072Z,88.83
2019-02-06T18:46:23.198Z,89.18
2019-02-06T18:48:54.121Z,90.08
2019-02-06T18:51:25.309Z,91.35
2019-02-06T18:53:56.384Z,91.21
2019-02-06T18:56:27.421Z,89.31
2019-02-06T18:58:58.417Z,89.51
2019-02-06T19:01:30.007Z,89.35
2019-02-06T19:04:01.476Z,90.60
2019-02-06T19:06:32.526Z,89.71
2019-02-06T19:09:05.775Z,89.20
2019-02-06T19:11:37.968Z,89.17
2019-02-06T19:14:09.488Z,89.48
2019-02-06T19:16:40.880Z,88.89
2019-02-06T19:19:11.920Z,87.54
2019-02-06T19:21:42.734Z,87.49
2019-02-06T19:24:13.570Z,87.26
2019-02-06T19:26:44.699Z,86.53
2019-02-06T19:29:15.946Z,86.33
2019-02-06T19:31:47.436Z,86.37
2019-02-06T19:34:18.510Z,86.63
2019-02-06T19:36:49.746Z,86.53
2019-02-06T19:39:20.592Z,85.43
2019-02-06T19:41:51.439Z,85.94
2019-02-06T19:44:22.330Z,86.25
2019-02-06T19:46:53.596Z,87.70
2019-02-06T19:49:24.608Z,87.07
2019-02-06T19:51:56.160Z,86.99
2019-02-06T19:54:27.177Z,86.90
2019-02-06T19:56:58.489Z,87.75
2019-02-06T19:59:29.268Z,88.22
2019-02-06T20:02:00.427Z,88.20
2019-02-06T20:04:31.479Z,87.19
2019-02-06T20:07:03.238Z,85.03
2019-02-06T20:09:34.579Z,85.15
2019-02-06T20:12:05.688Z,84.99
2019-02-06T20:14:36.751Z,84.10
2019-02-06T20:17:08.067Z,83.80
2019-02-06T20:19:39.192Z,82.86
2019-02-06T20:22:10.127Z,83.00
2019-02-06T20:24:41.398Z,83.82
2019-02-06T20:27:12.647Z,83.41
2019-02-06T20:29:43.390Z,84.37
2019-02-06T20:32:14.402Z,85.47
2019-02-06T20:34:45.645Z,85.75
2019-02-06T20:37:16.436Z,85.89
2019-02-06T20:39:47.299Z,86.46
2019-02-06T20:42:18.160Z,87.14
2019-02-06T20:44:48.925Z,87.77
2019-02-06T20:47:19.948Z,87.11
2019-02-06T20:49:50.851Z,87.24
2019-02-06T20:52:23.629Z,88.58
2019-02-06T20:54:54.710Z,87.79
2019-02-06T20:57:25.928Z,87.89
2019-02-06T20:59:57.116Z,87.76
2019-02-06T21:02:29.547Z,87.97
2019-02-06T21:05:00.872Z,87.56
2019-02-06T21:07:31.883Z,87.44
2019-02-06T21:10:02.957Z,88.00
2019-02-06T21:12:34.314Z,87.66
2019-02-06T21:15:05.945Z,87.00
2019-02-06T21:17:36.940Z,87.65
2019-02-06T21:20:10.486Z,87.99
2019-02-06T21:22:41.569Z,88.38
2019-02-06T21:25:13.850Z,88.42
2019-02-06T21:27:44.890Z,88.46
2019-02-06T21:30:20.919Z,88.46
2019-02-06T21:32:51.796Z,88.24
2019-02-06T21:35:22.619Z,87.78
2019-02-06T21:37:53.752Z,88.08
2019-02-06T21:40:26.437Z,87.32
2019-02-06T21:42:57.702Z,88.34
2019-02-06T21:45:28.920Z,89.03
2019-02-06T21:48:00.069Z,88.34
2019-02-06T21:50:31.312Z,88.06
2019-02-06T21:53:02.353Z,88.95
2019-02-06T21:55:33.292Z,89.01
2019-02-06T21:58:04.649Z,88.01
2019-02-06T22:00:39.375Z,87.14
2019-02-06T22:03:10.975Z,87.63
2019-02-06T22:05:42.077Z,87.79
2019-02-06T22:08:13.156Z,88.65
2019-02-06T22:10:43.974Z,88.58
2019-02-06T22:13:15.094Z,88.43
2019-02-06T22:15:46.915Z,88.01
2019-02-06T22:18:18.001Z,87.91
2019-02-06T22:20:49.147Z,88.04
2019-02-06T22:23:20.202Z,88.31
2019-02-06T22:25:51.079Z,88.47
2019-02-06T22:28:22.243Z,89.27
2019-02-06T22:30:53.597Z,88.85
2019-02-06T22:33:24.485Z,86.83
2019-02-06T22:35:55.729Z,84.76
2019-02-06T22:38:26.876Z,84.05
2019-02-06T22:40:57.993Z,83.35
2019-02-06T22:43:29.057Z,83.21
2019-02-06T22:46:00.788Z,83.46
2019-02-06T22:48:31.827Z,83.44
2019-02-06T22:51:02.594Z,83.59
2019-02-06T22:53:33.383Z,84.15
2019-02-06T22:56:05.059Z,84.51
2019-02-06T22:58:35.846Z,85.14
2019-02-06T23:01:22.955Z,85.68
2019-02-06T23:03:53.881Z,85.85
2019-02-06T23:06:25.303Z,86.31
2019-02-06T23:08:56.452Z,85.83
2019-02-06T23:11:27.302Z,85.78
2019-02-06T23:13:58.402Z,86.07
2019-02-06T23:16:29.240Z,86.01
2019-02-06T23:19:00.334Z,86.19
2019-02-06T23:21:31.426Z,86.47
2019-02-06T23:24:02.509Z,86.61
2019-02-06T23:26:33.491Z,86.79
2019-02-06T23:29:04.861Z,86.88
2019-02-06T23:31:35.963Z,87.45
2019-02-06T23:34:06.891Z,87.86
2019-02-06T23:36:38.052Z,88.32
2019-02-06T23:39:17.393Z,88.59
2019-02-06T23:41:48.234Z,89.62
2019-02-06T23:44:28.666Z,89.17
2019-02-06T23:46:55.958Z,87.96
2019-02-06T23:49:26.082Z,87.29
2019-02-06T23:51:57.071Z,86.63
2019-02-06T23:54:28.351Z,85.55
2019-02-06T23:56:59.259Z,85.04
2019-02-06T23:59:30.369Z,84.89
